Flight Track Log - Related Links

Times and Time Zones

All times are in EDT time to prevent confusion due to time zone crossing. See the VH-OGS flight status page for this flight to view local times or setup timezone preferences in your user account.

Time Position Orientation Groundspeed Altitude Reporting Facility
EDT Latitude Longitude Course Direction KTS MPH feet Rate Location/Type
Wed 08:09:38 PM -33.9873 151.2148 134° Southeast 170 196 2,100  Level Aus ATC (RADAR)
Wed 08:10:38 PM -34.0306 151.2685 141° Southeast 247 284 4,900 1,800 Climbing Aus ATC (RADAR)
Wed 08:11:18 PM -34.0707 151.3070 141° Southeast 272 313 5,100 1,760 Climbing Aus ATC (RADAR)
Wed 08:11:53 PM -34.1056 151.3410 150° Southeast 280 322 7,100 3,949 Climbing Aus ATC (RADAR)
Wed 08:12:37 PM -34.1556 151.3757 223° Southwest 289 333 10,300 4,073 Climbing Aus ATC (RADAR)
Wed 08:13:42 PM -34.2125 151.3114 297° West 276 318 14,500 3,168 Climbing Aus ATC (RADAR)
Wed 08:14:42 PM -34.1703 151.2118 302° West 341 392 16,900 2,900 Climbing Aus ATC (RADAR)
Wed 08:15:42 PM -34.1145 151.1033 301° West 371 427 20,300 3,360 Climbing Aus ATC (RADAR)
Wed 08:16:22 PM -34.0772 151.0276 301° West 380 437 22,500 3,280 Climbing Aus ATC (RADAR)
Wed 08:16:57 PM -34.0435 150.9595 301° West 390 449 24,400 3,035 Climbing Aus ATC (RADAR)
Wed 08:17:47 PM -33.9938 150.8599 301° West 403 464 26,800 2,182 Climbing Aus ATC (RADAR)
Wed 08:18:47 PM -33.9313 150.7356 301° West 426 490 28,400 2,400 Climbing Aus ATC (RADAR)
Wed 08:19:52 PM -33.8633 150.6011 301° West 422 486 31,800 3,150 Climbing Aus ATC (RADAR)
Wed 08:20:47 PM -33.8064 150.4884 301° West 416 479 34,700 2,660 Climbing Aus ATC (RADAR)
Wed 08:21:38 PM -33.7551 150.3870 299° West 415 478 36,500 2,400 Climbing Aus ATC (RADAR)
Wed 08:22:12 PM -33.7217 150.3148 272° West 413 475 38,100 1,286 Climbing Aus ATC (RADAR)
Wed 08:23:02 PM -33.7185 150.2057 264° West 393 452 38,300 109 Climbing Aus ATC (RADAR)
Wed 08:24:02 PM -33.7304 150.0728 264° West 394 453 38,300  Level Aus ATC (RADAR)
Wed 08:25:12 PM -33.7446 149.9153 264° West 402 463 38,300  Level Aus ATC (RADAR)
Wed 08:26:02 PM -33.7543 149.8010 264° West 404 465 38,300  Level Aus ATC (RADAR)
Wed 08:26:52 PM -33.7643 149.6870 264° West 403 464 38,300  Level Aus ATC (RADAR)
Wed 08:27:27 PM -33.7707 149.6093 264° West 394 453 38,300  Level Aus ATC (RADAR)
Wed 08:28:17 PM -33.7800 149.4983 264° West 392 451 38,300  Level Aus ATC (RADAR)
Wed 08:29:17 PM -33.7910 149.3643 264° West 395 455 38,300  Level Aus ATC (RADAR)
Wed 08:30:21 PM -33.8028 149.2172 264° West 401 461 38,300  Level Aus ATC (RADAR)
Wed 08:31:11 PM -33.8121 149.1031 265° West 404 465 38,300  Level Aus ATC (RADAR)
Wed 08:32:02 PM -33.8211 148.9885 264° West 406 467 38,300  Level Aus ATC (RADAR)
Wed 08:32:37 PM -33.8276 148.9081 265° West 406 467 38,300  Level Aus ATC (RADAR)
Wed 08:33:21 PM -33.8355 148.8046 265° West 407 468 38,300  Level Aus ATC (RADAR)
Wed 08:33:51 PM -33.8409 148.7355 264° West 408 470 38,300  Level Aus ATC (RADAR)
Wed 08:34:26 PM -33.8478 148.6553 259° West 406 467 38,300  Level Aus ATC (RADAR)
Wed 08:35:36 PM -33.8727 148.4961 259° West 408 470 38,300  Level Aus ATC (RADAR)
Wed 08:36:06 PM -33.8839 148.4280 259° West 409 471 38,300  Level Aus ATC (RADAR)
Wed 08:36:41 PM -33.8970 148.3486 259° West 409 471 38,300  Level Aus ATC (RADAR)
Wed 08:37:16 PM -33.9102 148.2691 259° West 409 471 38,300  Level Aus ATC (RADAR)
Wed 08:37:51 PM -33.9228 148.1895 259° West 409 471 38,300  Level Aus ATC (RADAR)
Wed 08:38:41 PM -33.9418 148.0757 259° West 410 472 38,300  Level Aus ATC (RADAR)
Wed 08:39:35 PM -33.9620 147.9502 259° West 410 472 38,300  Level Aus ATC (RADAR)
Wed 08:41:00 PM -33.9930 147.7554 259° West 412 474 38,300  Level Aus ATC (RADAR)
Wed 08:41:55 PM -34.0131 147.6290 259° West 412 474 38,300  Level Aus ATC (RADAR)
Wed 08:42:41 PM -34.0296 147.5252 259° West 415 478 38,300  Level Aus ATC (RADAR)
Wed 08:43:15 PM -34.0423 147.4439 259° West 417 480 38,300  Level Aus ATC (RADAR)
Wed 08:44:05 PM -34.0603 147.3279 259° West 416 479 38,300  Level Aus ATC (RADAR)
Wed 08:45:55 PM -34.1000 147.0712 259° West 418 481 38,300  Level Aus ATC (RADAR)
Wed 08:46:55 PM -34.1214 146.9312 260° West 417 480 38,300  Level Aus ATC (RADAR)
Wed 08:47:35 PM -34.1356 146.8376 260° West 421 484 38,300  Level Aus ATC (RADAR)
Wed 08:48:15 PM -34.1493 146.7441 259° West 417 480 38,300  Level Aus ATC (RADAR)
Wed 08:49:04 PM -34.1676 146.6269 260° West 419 482 38,300  Level Aus ATC (RADAR)
Wed 08:50:24 PM -34.1949 146.4391 260° West 421 484 38,300  Level Aus ATC (RADAR)
Wed 08:51:14 PM -34.2124 146.3215 260° West 421 484 38,300  Level Aus ATC (RADAR)
Wed 08:51:54 PM -34.2259 146.2272 260° West 425 489 38,300  Level Aus ATC (RADAR)
Wed 08:52:29 PM -34.2381 146.1448 260° West 423 487 38,300  Level Aus ATC (RADAR)
Wed 08:53:04 PM -34.2500 146.0620 261° West 424 488 38,300  Level Aus ATC (RADAR)
Wed 08:53:54 PM -34.2647 145.9432 261° West 426 490 38,300  Level Aus ATC (RADAR)
Wed 08:54:54 PM -34.2825 145.8006 262° West 426 490 38,300  Level Aus ATC (RADAR)
Wed 08:56:09 PM -34.3044 145.6215 262° West 426 490 38,300  Level Aus ATC (RADAR)
Wed 08:57:09 PM -34.3218 145.4790 262° West 421 484 38,300  Level Aus ATC (RADAR)
Wed 08:57:49 PM -34.3329 145.3825 262° West 431 496 38,300  Level Aus ATC (RADAR)
Wed 08:58:24 PM -34.3428 145.2995 262° West 424 488 38,300 71 Level Aus ATC (RADAR)
Wed 08:59:13 PM -34.3572 145.1804 262° West 424 488 38,400  Climbing Aus ATC (RADAR)
Wed 09:00:44 PM -34.3819 144.9658 262° West 425 489 38,300 -50 Descending Aus ATC (RADAR)
Wed 09:01:14 PM -34.3902 144.8948 262° West 424 488 38,300  Level Aus ATC (RADAR)
Wed 09:02:13 PM -34.4063 144.7522 262° West 425 489 38,300  Level Aus ATC (RADAR)
Wed 09:03:04 PM -34.4197 144.6334 262° West 425 489 38,300  Level Aus ATC (RADAR)
Wed 09:03:42 PM -34.4292 144.5498 262° West 425 489 38,300  Level Aus ATC (RADAR)
Wed 09:04:28 PM -34.4424 144.4306 262° West 426 490 38,300  Level Aus ATC (RADAR)
Wed 09:05:43 PM -34.4622 144.2514 262° West 429 494 38,300  Level Aus ATC (RADAR)
Wed 09:06:13 PM -34.4700 144.1797 262° West 429 494 38,300  Level Aus ATC (RADAR)
Wed 09:07:13 PM -34.4855 144.0367 263° West 428 493 38,300  Level Aus ATC (RADAR)
Wed 09:07:48 PM -34.4945 143.9525 263° West 430 495 38,300  Level Aus ATC (RADAR)
Wed 09:08:28 PM -34.5042 143.8589 262° West 419 482 38,300  Level Aus ATC (RADAR)
Wed 09:09:18 PM -34.5176 143.7376 263° West 435 501 38,300  Level Aus ATC (RADAR)
Wed 09:10:08 PM -34.5292 143.6219 263° West 419 482 38,300  Level Aus ATC (RADAR)
Wed 09:11:17 PM -34.5466 143.4562 263° West 422 486 38,300  Level Aus ATC (RADAR)
Wed 09:12:18 PM -34.5609 143.3148 263° West 420 483 38,300  Level Aus ATC (RADAR)
Wed 09:12:58 PM -34.5703 143.2208 263° West 420 483 38,300  Level Aus ATC (RADAR)
Wed 09:13:32 PM -34.5788 143.1384 263° West 420 483 38,300  Level Aus ATC (RADAR)
Wed 09:14:22 PM -34.5907 143.0210 263° West 418 481 38,300  Level Aus ATC (RADAR)
Wed 09:15:52 PM -34.6111 142.8091 263° West 421 484 38,300  Level Aus ATC (RADAR)
Wed 09:16:22 PM -34.6181 142.7387 263° West 420 483 38,300  Level Aus ATC (RADAR)
Wed 09:17:12 PM -34.6294 142.6214 264° West 418 481 38,300  Level Aus ATC (RADAR)
Wed 09:18:02 PM -34.6395 142.5037 267° West 421 484 38,300  Level Aus ATC (RADAR)
Wed 09:18:42 PM -34.6440 142.4096 266° West 418 481 38,300  Level Aus ATC (RADAR)
Wed 09:19:32 PM -34.6500 142.2917 266° West 419 482 38,300  Level Aus ATC (RADAR)
Wed 09:21:12 PM -34.6634 142.0557 266° West 420 483 38,300  Level Aus ATC (RADAR)
Wed 09:22:02 PM -34.6698 141.9378 266° West 421 484 38,300  Level Aus ATC (RADAR)
Wed 09:22:36 PM -34.6745 141.8538 267° West 421 484 38,300  Level Aus ATC (RADAR)
Wed 09:23:26 PM -34.6801 141.7371 266° West 420 483 38,300  Level Aus ATC (RADAR)
Wed 09:24:01 PM -34.6844 141.6530 267° West 421 484 38,300  Level Aus ATC (RADAR)
Wed 09:24:51 PM -34.6902 141.5361 266° West 421 484 38,300  Level Aus ATC (RADAR)
Wed 09:26:26 PM -34.7014 141.3105 267° West 423 487 38,300  Level Aus ATC (RADAR)
Wed 09:27:26 PM -34.7084 141.1657 267° West 423 487 38,300  Level Aus ATC (RADAR)
Wed 09:28:05 PM -34.7127 141.0701 267° West 425 489 38,300  Level Aus ATC (RADAR)
Wed 09:28:41 PM -34.7166 140.9889 267° West 424 488 38,300  Level Aus ATC (RADAR)
Wed 09:29:31 PM -34.7218 140.8694 267° West 425 489 38,300  Level Aus ATC (RADAR)
Wed 09:30:30 PM -34.7279 140.7246 267° West 427 491 38,300  Level Aus ATC (RADAR)
Wed 09:31:45 PM -34.7354 140.5455 267° West 425 489 38,300 -96 Level Aus ATC (RADAR)
Wed 09:32:35 PM -34.7403 140.4277 267° West 425 489 38,100 -1,560 Descending Aus ATC (RADAR)
Wed 09:33:25 PM -34.7452 140.3091 268° West 418 481 35,700 -3,176 Descending Aus ATC (RADAR)
Wed 09:34:00 PM -34.7477 140.2263 268° West 424 488 33,600 -3,035 Descending Aus ATC (RADAR)
Wed 09:34:50 PM -34.7518 140.1088 267° West 420 483 31,400 -2,529 Descending Aus ATC (RADAR)
Wed 09:36:20 PM -34.7598 139.9068 268° West 399 459 27,700 -2,450 Descending Aus ATC (RADAR)
Wed 09:36:50 PM -34.7622 139.8392 268° West 392 451 26,500 -2,533 Descending Aus ATC (RADAR)
Wed 09:37:50 PM -34.7667 139.7096 267° West 385 443 23,900 -2,243 Descending Aus ATC (RADAR)
Wed 09:38:45 PM -34.7707 139.5965 268° West 371 427 22,200 -2,022 Descending Aus ATC (RADAR)
Wed 09:39:19 PM -34.7731 139.5251 267° West 359 413 20,900 -2,286 Descending Aus ATC (RADAR)
Wed 09:40:09 PM -34.7767 139.4262 247° West 353 406 19,000 -1,665 Descending Aus ATC (RADAR)
Wed 09:41:54 PM -34.8368 139.2548 245° Southwest 307 353 16,600 -1,588 Descending Aus ATC (RADAR)
Wed 09:42:59 PM -34.8743 139.1561 245° Southwest 299 344 14,500 -1,860 Descending Aus ATC (RADAR)
Wed 09:43:34 PM -34.8943 139.1032 246° West 297 342 13,500 -1,629 Descending Aus ATC (RADAR)
Wed 09:44:09 PM -34.9136 139.0508 245° Southwest 292 336 12,600 -1,835 Descending Aus ATC (RADAR)
Wed 09:44:59 PM -34.9417 138.9763 245° Southwest 294 338 10,900 -1,600 Descending Aus ATC (RADAR)
Wed 09:46:24 PM -34.9882 138.8528 245° Southwest 282 325 9,000 -991 Descending Aus ATC (RADAR)
Wed 09:46:54 PM -35.0046 138.8090 245° Southwest 284 327 9,000  Level Aus ATC (RADAR)
Wed 09:47:58 PM -35.0394 138.7155 245° Southwest 280 322 9,000 -635 Level Aus ATC (RADAR)
Wed 09:48:38 PM -35.0609 138.6586 245° Southwest 277 319 7,900 -2,080 Descending Aus ATC (RADAR)
Wed 09:49:13 PM -35.0795 138.6086 246° West 278 320 6,400 -2,475 Descending Aus ATC (RADAR)
Wed 09:49:58 PM -35.1020 138.5471 262° West 264 304 4,600 -1,313 Descending Aus ATC (RADAR)
Wed 09:51:53 PM -35.1157 138.4332 17° North 169 194 2,900 -993 Descending Aus ATC (RADAR)
Wed 09:52:23 PM -35.0936 138.4415 15° North 165 190 2,200 -733 Descending Aus ATC (RADAR)
Wed 09:53:23 PM -35.0522 138.4552 16° North 155 178 1,800 -436 Descending Aus ATC (RADAR)
Wed 09:54:13 PM -35.0231 138.4656 15° North 126 145 1,400 -494 Descending Aus ATC (RADAR)
Wed 09:54:48 PM -35.0037 138.4722 25° Northeast 127 146 1,100 -525 Descending Aus ATC (RADAR)
Wed 09:55:33 PM -34.9805 138.4856 25° Northeast 126 145 700 -533 Descending Aus ATC (RADAR)

Login

Don't have an account? Register now (free) for customized features, flight alerts, and more!